Time;durP1;ratioP1;P1;durP2;ratioP2;P2;SDS_P1;SDS_P2;PMS_P1;PMS_P2;Temp;Humidity;BMP_temperature;BMP_pressure;BME280_temperature;BME280_humidity;BME280_pressure;Samples;Min_cycle;Max_cycle;Signal;HPM_P1;HPM_P2
2023/04/28 00:00:18;;;;;;;0.70;0.70;;;;;;;;;;5077209;28;20626;-81
2023/04/28 00:02:46;;;;;;;0.60;0.60;;;;;;;;;;5077186;28;20174;-80
2023/04/28 00:05:13;;;;;;;0.60;0.60;;;;;;;;;;5077497;28;20421;-80
2023/04/28 00:07:39;;;;;;;0.60;0.60;;;;;;;;;;5076899;28;20206;-80
2023/04/28 00:10:05;;;;;;;0.60;0.60;;;;;;;;;;5077656;28;20301;-80
2023/04/28 00:12:31;;;;;;;0.70;0.70;;;;;;;;;;5077351;28;20186;-80
2023/04/28 00:14:57;;;;;;;0.80;0.80;;;;;;;;;;5077751;28;20728;-80
2023/04/28 00:17:23;;;;;;;0.60;0.60;;;;;;;;;;5077100;28;20248;-80
2023/04/28 00:19:50;;;;;;;0.60;0.60;;;;;;;;;;5077404;28;20178;-80
2023/04/28 00:22:16;;;;;;;0.77;0.77;;;;;;;;;;5077391;28;20177;-80
2023/04/28 00:24:42;;;;;;;0.60;0.60;;;;;;;;;;5077482;28;20194;-81
2023/04/28 00:27:08;;;;;;;0.70;0.70;;;;;;;;;;5077551;28;20171;-80
2023/04/28 00:29:34;;;;;;;0.60;0.60;;;;;;;;;;5077580;28;20174;-80
2023/04/28 00:31:59;;;;;;;0.60;0.60;;;;;;;;;;5077680;28;20170;-79
2023/04/28 00:34:25;;;;;;;0.60;0.60;;;;;;;;;;5077069;28;20270;-81
2023/04/28 00:36:51;;;;;;;0.70;0.70;;;;;;;;;;5077612;28;20175;-79
2023/04/28 00:39:17;;;;;;;0.63;0.63;;;;;;;;;;5077356;28;20174;-79
2023/04/28 00:41:43;;;;;;;0.60;0.60;;;;;;;;;;5077571;28;20182;-81
2023/04/28 00:44:09;;;;;;;0.50;0.50;;;;;;;;;;5077427;28;20203;-80
2023/04/28 00:46:35;;;;;;;0.80;0.80;;;;;;;;;;5077374;28;20174;-80
2023/04/28 00:49:04;;;;;;;0.60;0.60;;;;;;;;;;5077698;28;20214;-80
2023/04/28 00:51:32;;;;;;;0.60;0.60;;;;;;;;;;5077836;28;20228;-81
2023/04/28 00:53:58;;;;;;;0.70;0.70;;;;;;;;;;5076953;28;20199;-80
2023/04/28 00:56:27;;;;;;;0.70;0.70;;;;;;;;;;5076697;28;20231;-80
2023/04/28 00:58:53;;;;;;;0.63;0.63;;;;;;;;;;5077132;28;20253;-79
2023/04/28 01:01:19;;;;;;;0.70;0.70;;;;;;;;;;5084049;28;20174;-80
2023/04/28 01:03:45;;;;;;;0.53;0.53;;;;;;;;;;5093652;28;20201;-79
2023/04/28 01:06:11;;;;;;;0.70;0.70;;;;;;;;;;5093346;28;20190;-81
2023/04/28 01:08:38;;;;;;;0.60;0.60;;;;;;;;;;5094007;28;20217;-80
2023/04/28 01:11:05;;;;;;;0.50;0.50;;;;;;;;;;5093824;28;20196;-79
2023/04/28 01:13:31;;;;;;;0.60;0.60;;;;;;;;;;5092022;28;20187;-78
2023/04/28 01:15:57;;;;;;;0.60;0.60;;;;;;;;;;5092482;28;20280;-78
2023/04/28 01:18:24;;;;;;;0.80;0.80;;;;;;;;;;5092296;28;20182;-79
2023/04/28 01:20:50;;;;;;;0.60;0.60;;;;;;;;;;5092883;28;20174;-80
2023/04/28 01:23:16;;;;;;;0.67;0.67;;;;;;;;;;5092460;28;20162;-79
2023/04/28 01:25:43;;;;;;;0.70;0.70;;;;;;;;;;5091473;28;20220;-79
2023/04/28 01:28:10;;;;;;;0.60;0.60;;;;;;;;;;5083384;28;20229;-79
2023/04/28 01:30:36;;;;;;;0.50;0.50;;;;;;;;;;5074834;28;20178;-78
2023/04/28 01:33:02;;;;;;;0.60;0.60;;;;;;;;;;5076241;28;20182;-79
2023/04/28 01:35:29;;;;;;;0.70;0.70;;;;;;;;;;5076948;28;20228;-79
2023/04/28 01:37:54;;;;;;;0.70;0.70;;;;;;;;;;5075931;28;20220;-80
2023/04/28 01:40:20;;;;;;;0.60;0.60;;;;;;;;;;5076006;28;20178;-79
2023/04/28 01:42:46;;;;;;;0.53;0.53;;;;;;;;;;5074738;28;20182;-79
2023/04/28 01:45:12;;;;;;;0.60;0.60;;;;;;;;;;5076868;28;20199;-79
2023/04/28 01:47:38;;;;;;;0.50;0.50;;;;;;;;;;5078457;28;20247;-80
2023/04/28 01:50:05;;;;;;;0.70;0.70;;;;;;;;;;5079368;28;20174;-80
2023/04/28 01:52:31;;;;;;;0.60;0.60;;;;;;;;;;5078657;28;20189;-79
2023/04/28 01:54:57;;;;;;;0.60;0.60;;;;;;;;;;5079716;28;20190;-80
2023/04/28 01:57:23;;;;;;;0.60;0.60;;;;;;;;;;5077298;28;20182;-80
2023/04/28 01:59:49;;;;;;;0.70;0.70;;;;;;;;;;5076561;28;20178;-80
2023/04/28 02:02:15;;;;;;;0.50;0.50;;;;;;;;;;5075407;28;20257;-81
2023/04/28 02:04:41;;;;;;;0.60;0.60;;;;;;;;;;5075762;28;20198;-81
2023/04/28 02:07:07;;;;;;;0.57;0.57;;;;;;;;;;5075691;28;20552;-80
2023/04/28 02:09:33;;;;;;;0.60;0.60;;;;;;;;;;5075948;28;20170;-80
2023/04/28 02:12:01;;;;;;;0.50;0.50;;;;;;;;;;5075370;28;20170;-80
2023/04/28 02:14:27;;;;;;;0.60;0.60;;;;;;;;;;5075351;28;20202;-81
2023/04/28 02:16:53;;;;;;;0.60;0.60;;;;;;;;;;5074939;28;20227;-80
2023/04/28 02:19:18;;;;;;;0.60;0.60;;;;;;;;;;5075748;28;20167;-81
2023/04/28 02:21:44;;;;;;;0.60;0.60;;;;;;;;;;5074935;28;20204;-80
2023/04/28 02:24:10;;;;;;;0.70;0.70;;;;;;;;;;5074383;28;20198;-80
2023/04/28 02:26:36;;;;;;;0.67;0.67;;;;;;;;;;5074934;28;20177;-80
2023/04/28 02:29:03;;;;;;;0.80;0.80;;;;;;;;;;5074583;28;20316;-80
2023/04/28 02:31:29;;;;;;;0.70;0.70;;;;;;;;;;5077540;28;20186;-80
2023/04/28 02:33:55;;;;;;;0.60;0.60;;;;;;;;;;5078668;28;20217;-80
2023/04/28 02:36:21;;;;;;;0.60;0.60;;;;;;;;;;5078986;28;20178;-80
2023/04/28 02:38:47;;;;;;;0.70;0.70;;;;;;;;;;5079054;28;20178;-79
2023/04/28 02:41:14;;;;;;;0.70;0.70;;;;;;;;;;5079001;28;20523;-80
2023/04/28 02:43:41;;;;;;;0.60;0.60;;;;;;;;;;5078370;28;20198;-79
2023/04/28 02:46:07;;;;;;;0.60;0.60;;;;;;;;;;5078707;28;20179;-79
2023/04/28 02:48:34;;;;;;;0.60;0.60;;;;;;;;;;5078889;28;20214;-79
2023/04/28 02:51:01;;;;;;;0.80;0.80;;;;;;;;;;5078742;28;20185;-79
2023/04/28 02:53:27;;;;;;;0.70;0.70;;;;;;;;;;5077882;28;20190;-79
2023/04/28 02:55:53;;;;;;;0.60;0.60;;;;;;;;;;5077905;28;20201;-80
2023/04/28 02:58:19;;;;;;;0.73;0.73;;;;;;;;;;5078220;28;20286;-79
2023/04/28 03:00:45;;;;;;;0.60;0.60;;;;;;;;;;5076238;28;20174;-79
2023/04/28 03:03:11;;;;;;;0.70;0.70;;;;;;;;;;5076092;28;20182;-80
2023/04/28 03:05:37;;;;;;;0.67;0.67;;;;;;;;;;5077828;28;20289;-79
2023/04/28 03:08:04;;;;;;;0.60;0.60;;;;;;;;;;5078142;28;20244;-80
2023/04/28 03:10:30;;;;;;;0.50;0.50;;;;;;;;;;5078116;28;20179;-79
2023/04/28 03:12:56;;;;;;;0.60;0.60;;;;;;;;;;5077503;28;20285;-80
2023/04/28 03:15:22;;;;;;;0.60;0.60;;;;;;;;;;5077724;28;20526;-80
2023/04/28 03:17:48;;;;;;;0.60;0.60;;;;;;;;;;5077214;28;20174;-79
2023/04/28 03:20:13;;;;;;;0.70;0.70;;;;;;;;;;5077444;28;20194;-80
2023/04/28 03:22:40;;;;;;;0.60;0.60;;;;;;;;;;5076827;28;20621;-81
2023/04/28 03:25:06;;;;;;;0.60;0.60;;;;;;;;;;5077460;28;20715;-80
2023/04/28 03:27:32;;;;;;;0.60;0.60;;;;;;;;;;5077625;28;20220;-80
2023/04/28 03:29:58;;;;;;;0.60;0.60;;;;;;;;;;5076817;28;20193;-80
2023/04/28 03:32:24;;;;;;;0.63;0.63;;;;;;;;;;5076804;28;20544;-80
2023/04/28 03:34:50;;;;;;;0.70;0.70;;;;;;;;;;5077718;28;20190;-80
2023/04/28 03:37:16;;;;;;;0.60;0.60;;;;;;;;;;5077240;28;20174;-80
2023/04/28 03:39:42;;;;;;;0.60;0.60;;;;;;;;;;5076886;28;20170;-80
2023/04/28 03:42:08;;;;;;;0.60;0.60;;;;;;;;;;5077179;28;20182;-80
2023/04/28 03:44:35;;;;;;;0.70;0.70;;;;;;;;;;5076856;28;20202;-80
2023/04/28 03:47:00;;;;;;;0.50;0.50;;;;;;;;;;5076691;28;20273;-79
2023/04/28 03:49:26;;;;;;;0.60;0.60;;;;;;;;;;5077176;28;20206;-80
2023/04/28 03:51:52;;;;;;;0.70;0.70;;;;;;;;;;5076605;28;20178;-80
2023/04/28 03:54:18;;;;;;;0.60;0.60;;;;;;;;;;5076364;28;20194;-80
2023/04/28 03:56:45;;;;;;;0.63;0.63;;;;;;;;;;5076893;28;20552;-80
2023/04/28 03:59:11;;;;;;;0.53;0.53;;;;;;;;;;5076316;28;20623;-80
2023/04/28 04:01:37;;;;;;;0.60;0.60;;;;;;;;;;5076101;28;20188;-80
2023/04/28 04:04:04;;;;;;;0.70;0.70;;;;;;;;;;5075955;28;20652;-81
2023/04/28 04:06:30;;;;;;;0.70;0.70;;;;;;;;;;5058209;28;20256;-80
2023/04/28 04:08:56;;;;;;;0.60;0.60;;;;;;;;;;5075909;28;20289;-81
2023/04/28 04:11:22;;;;;;;0.60;0.60;;;;;;;;;;5076746;28;20715;-80
2023/04/28 04:13:48;;;;;;;0.60;0.60;;;;;;;;;;5075829;28;20205;-80
2023/04/28 04:16:14;;;;;;;0.70;0.70;;;;;;;;;;5077404;28;20178;-80
2023/04/28 04:18:41;;;;;;;0.67;0.67;;;;;;;;;;5087815;28;20181;-79
2023/04/28 04:21:07;;;;;;;0.60;0.60;;;;;;;;;;5098745;28;20250;-79
2023/04/28 04:23:33;;;;;;;0.60;0.60;;;;;;;;;;5097122;28;20213;-80
2023/04/28 04:25:59;;;;;;;0.60;0.60;;;;;;;;;;5073195;28;20631;-79
2023/04/28 04:28:25;;;;;;;0.70;0.70;;;;;;;;;;5072674;28;20210;-80
2023/04/28 04:30:51;;;;;;;0.60;0.60;;;;;;;;;;5072269;28;20171;-80
2023/04/28 04:33:17;;;;;;;0.67;0.67;;;;;;;;;;5071181;28;20181;-80
2023/04/28 04:35:43;;;;;;;0.60;0.60;;;;;;;;;;5071792;28;20182;-79
2023/04/28 04:38:09;;;;;;;0.70;0.70;;;;;;;;;;5072314;28;20564;-80
2023/04/28 04:40:35;;;;;;;0.70;0.70;;;;;;;;;;5072651;28;20202;-79
2023/04/28 04:43:01;;;;;;;0.50;0.50;;;;;;;;;;5072047;28;20596;-81
2023/04/28 04:45:27;;;;;;;0.60;0.60;;;;;;;;;;5071909;28;20204;-78
2023/04/28 04:47:53;;;;;;;0.60;0.60;;;;;;;;;;5076690;28;20221;-79
2023/04/28 04:50:19;;;;;;;0.60;0.60;;;;;;;;;;5084834;28;20269;-80
2023/04/28 04:52:45;;;;;;;0.60;0.60;;;;;;;;;;5092180;28;20189;-81
2023/04/28 04:55:11;;;;;;;0.60;0.60;;;;;;;;;;5080821;28;20199;-80
2023/04/28 04:57:37;;;;;;;0.70;0.70;;;;;;;;;;5073483;28;20262;-80
2023/04/28 05:00:04;;;;;;;0.50;0.50;;;;;;;;;;5073971;28;20205;-81
2023/04/28 05:02:30;;;;;;;0.60;0.60;;;;;;;;;;5074079;28;20174;-81
2023/04/28 05:04:56;;;;;;;0.60;0.60;;;;;;;;;;5073963;28;20201;-80
2023/04/28 05:07:22;;;;;;;0.60;0.60;;;;;;;;;;5074883;28;20202;-81
2023/04/28 05:09:48;;;;;;;0.60;0.60;;;;;;;;;;5074433;28;20182;-82
2023/04/28 05:12:14;;;;;;;0.60;0.60;;;;;;;;;;5073828;28;20673;-80
2023/04/28 05:14:40;;;;;;;0.60;0.60;;;;;;;;;;5074417;28;20198;-81
2023/04/28 05:17:06;;;;;;;0.60;0.60;;;;;;;;;;5074612;28;20171;-83
2023/04/28 05:19:32;;;;;;;0.57;0.57;;;;;;;;;;5075547;28;20200;-82
2023/04/28 05:21:59;;;;;;;0.70;0.70;;;;;;;;;;5076535;28;20162;-80
2023/04/28 05:24:25;;;;;;;0.60;0.60;;;;;;;;;;5085566;28;20236;-81
2023/04/28 05:26:52;;;;;;;0.60;0.60;;;;;;;;;;5088567;28;20174;-81
2023/04/28 05:29:19;;;;;;;0.60;0.60;;;;;;;;;;5095257;28;20213;-80
2023/04/28 05:31:45;;;;;;;0.50;0.50;;;;;;;;;;5095677;28;20205;-80
2023/04/28 05:34:11;;;;;;;0.60;0.60;;;;;;;;;;5094708;28;20273;-80
2023/04/28 05:36:37;;;;;;;0.60;0.60;;;;;;;;;;5095363;28;20230;-80
2023/04/28 05:39:03;;;;;;;0.60;0.60;;;;;;;;;;5095589;28;20185;-80
2023/04/28 05:41:29;;;;;;;0.60;0.60;;;;;;;;;;5094964;28;20174;-79
2023/04/28 05:43:55;;;;;;;0.60;0.60;;;;;;;;;;5095592;28;20763;-78
2023/04/28 05:46:21;;;;;;;0.50;0.50;;;;;;;;;;5095644;28;20170;-79
2023/04/28 05:48:47;;;;;;;0.70;0.70;;;;;;;;;;5095811;28;20254;-79
2023/04/28 05:51:13;;;;;;;0.53;0.53;;;;;;;;;;5095915;28;20580;-79
2023/04/28 05:53:39;;;;;;;0.60;0.60;;;;;;;;;;5097450;28;20197;-79
2023/04/28 05:56:05;;;;;;;0.60;0.60;;;;;;;;;;5097175;28;20618;-80
2023/04/28 05:58:32;;;;;;;0.60;0.60;;;;;;;;;;5096883;28;20189;-80
2023/04/28 06:00:58;;;;;;;0.50;0.50;;;;;;;;;;5095944;28;20166;-80
2023/04/28 06:03:24;;;;;;;0.50;0.50;;;;;;;;;;5096483;28;20208;-80
2023/04/28 06:05:50;;;;;;;0.60;0.60;;;;;;;;;;5088021;28;20198;-79
2023/04/28 06:08:16;;;;;;;0.60;0.60;;;;;;;;;;5080396;28;20267;-80
2023/04/28 06:10:42;;;;;;;0.60;0.60;;;;;;;;;;5079899;28;20174;-80
2023/04/28 06:13:08;;;;;;;0.60;0.60;;;;;;;;;;5084247;28;20178;-80
2023/04/28 06:15:34;;;;;;;0.50;0.50;;;;;;;;;;5098115;28;20182;-79
2023/04/28 06:18:01;;;;;;;0.70;0.70;;;;;;;;;;5097735;28;20177;-80
2023/04/28 06:20:27;;;;;;;0.60;0.60;;;;;;;;;;5097496;28;20299;-80
2023/04/28 06:22:53;;;;;;;0.60;0.60;;;;;;;;;;5096241;28;20537;-80
2023/04/28 06:25:18;;;;;;;0.60;0.60;;;;;;;;;;5094958;28;20331;-84
2023/04/28 06:27:45;;;;;;;0.60;0.60;;;;;;;;;;5096350;28;20201;-79
2023/04/28 06:30:17;;;;;;;0.60;0.60;;;;;;;;;;5097707;28;20178;-80
2023/04/28 06:32:43;;;;;;;0.50;0.50;;;;;;;;;;5097150;28;20194;-78
2023/04/28 06:35:12;;;;;;;0.60;0.60;;;;;;;;;;5096109;28;20274;-81
2023/04/28 06:37:38;;;;;;;0.70;0.70;;;;;;;;;;5096966;28;20174;-79
2023/04/28 06:40:04;;;;;;;0.70;0.70;;;;;;;;;;5097152;28;20185;-80
2023/04/28 06:42:30;;;;;;;0.50;0.50;;;;;;;;;;5096698;28;20174;-80
2023/04/28 06:44:56;;;;;;;0.60;0.60;;;;;;;;;;5096337;28;20213;-81
2023/04/28 06:47:22;;;;;;;0.50;0.50;;;;;;;;;;5094897;28;20178;-81
2023/04/28 06:49:49;;;;;;;0.70;0.70;;;;;;;;;;5094762;28;20226;-82
2023/04/28 06:52:15;;;;;;;0.63;0.63;;;;;;;;;;5096486;28;20186;-81
2023/04/28 06:54:41;;;;;;;0.70;0.70;;;;;;;;;;5095873;28;20217;-80
2023/04/28 06:57:07;;;;;;;0.60;0.60;;;;;;;;;;5096963;28;20656;-82
2023/04/28 06:59:33;;;;;;;0.60;0.60;;;;;;;;;;5095694;28;20190;-81
2023/04/28 07:01:59;;;;;;;0.60;0.60;;;;;;;;;;5094736;28;20184;-82
2023/04/28 07:04:26;;;;;;;0.60;0.60;;;;;;;;;;5095015;28;20257;-82
2023/04/28 07:06:52;;;;;;;0.50;0.50;;;;;;;;;;5095637;28;20240;-82
2023/04/28 07:09:18;;;;;;;0.60;0.60;;;;;;;;;;5096230;28;20549;-80
2023/04/28 07:11:45;;;;;;;0.70;0.70;;;;;;;;;;5097606;28;20246;-82
2023/04/28 07:14:11;;;;;;;0.70;0.70;;;;;;;;;;5097724;28;20622;-81
2023/04/28 07:16:37;;;;;;;0.67;0.67;;;;;;;;;;5087696;28;20220;-81
2023/04/28 07:19:03;;;;;;;0.60;0.60;;;;;;;;;;5091402;28;20249;-81
2023/04/28 07:21:29;;;;;;;0.70;0.70;;;;;;;;;;5087818;28;20193;-83
2023/04/28 07:23:57;;;;;;;0.57;0.57;;;;;;;;;;5078975;28;20206;-80
2023/04/28 07:26:23;;;;;;;0.57;0.57;;;;;;;;;;5078421;28;20269;-81
2023/04/28 07:28:50;;;;;;;0.53;0.53;;;;;;;;;;5095152;28;20232;-82
2023/04/28 07:31:16;;;;;;;0.60;0.60;;;;;;;;;;5099422;28;20264;-80
2023/04/28 07:33:42;;;;;;;0.70;0.70;;;;;;;;;;5099679;28;20198;-81
2023/04/28 07:36:08;;;;;;;0.60;0.60;;;;;;;;;;5090005;28;20435;-80
2023/04/28 07:38:34;;;;;;;0.53;0.53;;;;;;;;;;5098068;28;20220;-81
2023/04/28 07:41:00;;;;;;;0.70;0.70;;;;;;;;;;5098251;28;20178;-82
2023/04/28 07:43:26;;;;;;;0.60;0.60;;;;;;;;;;5084451;28;20204;-79
2023/04/28 07:45:52;;;;;;;0.67;0.67;;;;;;;;;;5087497;28;20538;-80
2023/04/28 07:48:18;;;;;;;0.60;0.60;;;;;;;;;;5086655;28;20206;-80
2023/04/28 07:50:44;;;;;;;0.60;0.60;;;;;;;;;;5085688;28;20170;-80
2023/04/28 07:53:10;;;;;;;0.50;0.50;;;;;;;;;;5085690;28;20261;-81
2023/04/28 07:55:37;;;;;;;0.60;0.60;;;;;;;;;;5087251;28;20217;-80
2023/04/28 07:58:03;;;;;;;0.57;0.57;;;;;;;;;;5094078;28;20203;-80
2023/04/28 08:00:29;;;;;;;0.50;0.50;;;;;;;;;;5103928;28;20192;-82
2023/04/28 08:02:56;;;;;;;0.60;0.60;;;;;;;;;;5109636;28;20623;-81
2023/04/28 08:05:22;;;;;;;0.40;0.40;;;;;;;;;;5097604;28;20182;-78
2023/04/28 08:07:48;;;;;;;0.47;0.47;;;;;;;;;;5098395;28;20217;-79
2023/04/28 08:10:14;;;;;;;0.60;0.60;;;;;;;;;;5081158;28;20182;-79
2023/04/28 08:12:40;;;;;;;0.60;0.60;;;;;;;;;;5078819;28;20208;-80
2023/04/28 08:15:06;;;;;;;0.60;0.60;;;;;;;;;;5078575;28;20199;-81
2023/04/28 08:17:32;;;;;;;0.53;0.53;;;;;;;;;;5078822;28;20170;-79
2023/04/28 08:19:58;;;;;;;0.60;0.60;;;;;;;;;;5078126;28;20185;-80
2023/04/28 08:22:24;;;;;;;0.60;0.60;;;;;;;;;;5076799;28;20257;-80
2023/04/28 08:24:50;;;;;;;0.50;0.50;;;;;;;;;;5075688;28;20198;-80
2023/04/28 08:27:17;;;;;;;0.40;0.40;;;;;;;;;;5075229;28;20183;-81
2023/04/28 08:29:43;;;;;;;0.60;0.60;;;;;;;;;;5075227;28;20208;-79
2023/04/28 08:32:09;;;;;;;0.50;0.50;;;;;;;;;;5078935;28;20246;-79
2023/04/28 08:34:35;;;;;;;0.50;0.50;;;;;;;;;;5094641;28;20233;-79
2023/04/28 08:37:01;;;;;;;0.60;0.60;;;;;;;;;;5098556;28;20173;-79
2023/04/28 08:39:28;;;;;;;0.60;0.60;;;;;;;;;;5098178;28;20185;-78
2023/04/28 08:41:54;;;;;;;0.60;0.60;;;;;;;;;;5096634;28;20205;-79
2023/04/28 08:44:22;;;;;;;0.60;0.60;;;;;;;;;;5096244;28;20186;-79
2023/04/28 08:46:49;;;;;;;0.50;0.50;;;;;;;;;;5095877;28;20169;-78
2023/04/28 08:49:16;;;;;;;0.50;0.50;;;;;;;;;;5095364;28;20209;-78
2023/04/28 08:51:49;;;;;;;0.70;0.70;;;;;;;;;;5095197;28;20181;-78
2023/04/28 08:54:15;;;;;;;0.60;0.60;;;;;;;;;;5086382;28;20199;-79
2023/04/28 08:56:45;;;;;;;0.50;0.50;;;;;;;;;;5067711;28;20185;-79
2023/04/28 08:59:14;;;;;;;0.63;0.63;;;;;;;;;;5077439;28;20230;-79
2023/04/28 09:01:40;;;;;;;0.60;0.60;;;;;;;;;;5090362;28;20525;-79
2023/04/28 09:04:06;;;;;;;0.63;0.63;;;;;;;;;;5092533;28;20663;-78
2023/04/28 09:06:36;;;;;;;0.60;0.60;;;;;;;;;;5092351;28;20619;-79
2023/04/28 09:09:18;;;;;;;0.60;0.60;;;;;;;;;;5086884;28;20299;-79
2023/04/28 09:11:54;;;;;;;0.40;0.40;;;;;;;;;;5090350;28;20861;-78
2023/04/28 09:14:21;;;;;;;0.50;0.50;;;;;;;;;;5082635;28;20217;-78
2023/04/28 09:16:47;;;;;;;0.57;0.57;;;;;;;;;;5082290;28;20197;-79
2023/04/28 09:19:15;;;;;;;0.57;0.57;;;;;;;;;;5089054;28;20174;-78
2023/04/28 09:21:54;;;;;;;0.50;0.50;;;;;;;;;;5083848;28;20242;-79
2023/04/28 09:24:38;;;;;;;0.47;0.47;;;;;;;;;;5070615;28;20190;-79
2023/04/28 09:27:06;;;;;;;0.50;0.50;;;;;;;;;;5083189;28;20680;-78
2023/04/28 09:29:32;;;;;;;0.50;0.50;;;;;;;;;;5084739;28;20300;-78
2023/04/28 09:32:14;;;;;;;0.57;0.57;;;;;;;;;;5069007;28;20550;-79
2023/04/28 09:34:44;;;;;;;0.40;0.40;;;;;;;;;;5085068;28;20202;-79
2023/04/28 09:37:21;;;;;;;0.40;0.40;;;;;;;;;;5083192;28;20201;-79
2023/04/28 09:39:49;;;;;;;0.40;0.40;;;;;;;;;;5081441;28;20177;-77
2023/04/28 09:42:34;;;;;;;0.60;0.60;;;;;;;;;;5083097;28;20186;-79
2023/04/28 09:45:02;;;;;;;0.60;0.60;;;;;;;;;;5089757;28;20255;-79
2023/04/28 09:47:28;;;;;;;0.40;0.40;;;;;;;;;;5115854;28;20181;-81
2023/04/28 09:49:55;;;;;;;0.40;0.40;;;;;;;;;;5106381;28;20227;-81
2023/04/28 09:52:21;;;;;;;0.57;0.57;;;;;;;;;;5096166;28;20189;-79
2023/04/28 09:54:49;;;;;;;0.50;0.50;;;;;;;;;;5084555;28;20255;-80
2023/04/28 09:57:17;;;;;;;0.50;0.50;;;;;;;;;;5089985;28;20173;-79
2023/04/28 09:59:45;;;;;;;0.53;0.53;;;;;;;;;;5057744;28;20212;-79
2023/04/28 10:02:11;;;;;;;0.40;0.40;;;;;;;;;;5075685;28;20174;-81
2023/04/28 10:04:38;;;;;;;0.50;0.50;;;;;;;;;;5084887;28;20195;-81
2023/04/28 10:07:04;;;;;;;0.37;0.37;;;;;;;;;;5089574;28;20189;-80
2023/04/28 10:09:32;;;;;;;0.30;0.30;;;;;;;;;;5096514;28;20292;-81
2023/04/28 10:11:58;;;;;;;0.47;0.47;;;;;;;;;;5090978;28;20178;-79
2023/04/28 10:14:24;;;;;;;0.43;0.43;;;;;;;;;;5085983;28;20225;-82
2023/04/28 10:16:51;;;;;;;0.30;0.30;;;;;;;;;;5095639;28;20199;-81
2023/04/28 10:19:17;;;;;;;0.50;0.50;;;;;;;;;;5079951;28;20175;-81
2023/04/28 10:21:48;;;;;;;0.30;0.30;;;;;;;;;;5084063;28;20188;-79
2023/04/28 10:24:28;;;;;;;0.50;0.50;;;;;;;;;;5056794;28;20224;-79
2023/04/28 10:27:03;;;;;;;0.50;0.50;;;;;;;;;;5080009;28;20494;-78
2023/04/28 10:29:30;;;;;;;0.40;0.40;;;;;;;;;;5095156;28;20558;-78
2023/04/28 10:32:14;;;;;;;0.43;0.43;;;;;;;;;;5106483;28;20215;-80
2023/04/28 10:34:40;;;;;;;0.43;0.43;;;;;;;;;;5116116;28;20262;-79
2023/04/28 10:37:06;;;;;;;0.43;0.43;;;;;;;;;;5115531;28;20539;-81
2023/04/28 10:39:32;;;;;;;0.47;0.47;;;;;;;;;;5115316;28;20188;-81
2023/04/28 10:41:58;;;;;;;0.50;0.50;;;;;;;;;;5116127;28;20173;-79
2023/04/28 10:44:30;;;;;;;0.40;0.40;;;;;;;;;;5115127;28;20204;-78
2023/04/28 10:47:00;;;;;;;0.50;0.50;;;;;;;;;;5115622;28;20203;-80
2023/04/28 10:49:46;;;;;;;0.60;0.60;;;;;;;;;;5116117;28;20217;-79
2023/04/28 10:52:31;;;;;;;0.50;0.50;;;;;;;;;;5117321;28;20173;-80
2023/04/28 10:55:15;;;;;;;0.40;0.40;;;;;;;;;;5119650;28;20188;-82
2023/04/28 10:57:41;;;;;;;0.30;0.30;;;;;;;;;;5119743;28;20172;-80
2023/04/28 11:00:27;;;;;;;0.40;0.40;;;;;;;;;;5099060;28;20201;-80
2023/04/28 11:02:53;;;;;;;0.37;0.37;;;;;;;;;;5096034;28;20177;-80
2023/04/28 11:05:19;;;;;;;0.40;0.40;;;;;;;;;;5101181;28;20201;-81
2023/04/28 11:08:04;;;;;;;0.50;0.50;;;;;;;;;;5098743;28;20217;-80
2023/04/28 11:10:48;;;;;;;0.40;0.40;;;;;;;;;;5098608;28;20241;-81
2023/04/28 11:13:36;;;;;;;0.30;0.30;;;;;;;;;;5099687;28;20202;-81
2023/04/28 11:16:06;;;;;;;0.40;0.40;;;;;;;;;;5100906;28;20182;-81
2023/04/28 11:18:44;;;;;;;0.37;0.37;;;;;;;;;;5098313;28;20190;-82
2023/04/28 11:21:11;;;;;;;0.47;0.47;;;;;;;;;;5098445;28;20177;-82
2023/04/28 11:23:39;;;;;;;0.40;0.40;;;;;;;;;;5102059;28;20326;-81
2023/04/28 11:26:05;;;;;;;0.40;0.40;;;;;;;;;;5102642;28;20170;-80
2023/04/28 11:28:31;;;;;;;0.40;0.40;;;;;;;;;;5099581;28;20297;-80
2023/04/28 11:31:12;;;;;;;0.33;0.33;;;;;;;;;;5101775;28;20165;-80
2023/04/28 11:33:39;;;;;;;0.40;0.40;;;;;;;;;;5100172;28;20263;-80
2023/04/28 11:36:06;;;;;;;0.37;0.37;;;;;;;;;;5101362;28;20182;-82
2023/04/28 11:38:42;;;;;;;0.30;0.30;;;;;;;;;;5080789;28;20186;-80
2023/04/28 11:41:08;;;;;;;0.30;0.30;;;;;;;;;;5077511;28;20186;-80
2023/04/28 11:43:34;;;;;;;0.40;0.40;;;;;;;;;;5087348;28;20281;-81
2023/04/28 11:46:00;;;;;;;0.40;0.40;;;;;;;;;;5097959;28;20182;-80
2023/04/28 11:48:26;;;;;;;0.30;0.30;;;;;;;;;;5094073;28;20210;-79
2023/04/28 11:50:52;;;;;;;0.50;0.50;;;;;;;;;;5085223;28;20170;-80
2023/04/28 11:53:19;;;;;;;0.30;0.30;;;;;;;;;;5086714;28;20175;-79
2023/04/28 11:55:45;;;;;;;0.40;0.40;;;;;;;;;;5085888;28;20170;-81
2023/04/28 11:58:24;;;;;;;0.30;0.30;;;;;;;;;;5086872;28;20262;-79
2023/04/28 12:01:08;;;;;;;0.40;0.40;;;;;;;;;;5080038;28;20250;-80
2023/04/28 12:03:44;;;;;;;0.40;0.40;;;;;;;;;;5076096;28;20945;-81
2023/04/28 12:06:10;;;;;;;0.40;0.40;;;;;;;;;;5083344;28;20186;-80
2023/04/28 12:08:36;;;;;;;0.40;0.40;;;;;;;;;;5076347;28;20237;-80
2023/04/28 12:11:12;;;;;;;0.33;0.33;;;;;;;;;;5076513;28;20176;-80
2023/04/28 12:13:38;;;;;;;0.30;0.30;;;;;;;;;;5076322;28;20197;-79
2023/04/28 12:16:05;;;;;;;0.40;0.40;;;;;;;;;;5076277;28;20653;-79
2023/04/28 12:18:31;;;;;;;0.30;0.30;;;;;;;;;;5075961;28;20682;-80
2023/04/28 12:20:58;;;;;;;0.30;0.30;;;;;;;;;;5076173;28;20178;-79
2023/04/28 12:23:33;;;;;;;0.50;0.50;;;;;;;;;;5078330;28;20217;-79
2023/04/28 12:26:00;;;;;;;0.30;0.30;;;;;;;;;;5084831;28;20170;-79
2023/04/28 12:28:41;;;;;;;0.30;0.30;;;;;;;;;;5088451;28;20217;-79
2023/04/28 12:31:08;;;;;;;0.40;0.40;;;;;;;;;;5084511;28;20633;-78
2023/04/28 12:33:38;;;;;;;0.40;0.40;;;;;;;;;;5078771;28;20295;-81
2023/04/28 12:36:05;;;;;;;0.40;0.40;;;;;;;;;;5078993;28;20223;-81
2023/04/28 12:38:31;;;;;;;0.50;0.50;;;;;;;;;;5079283;28;20174;-82
2023/04/28 12:40:57;;;;;;;0.37;0.37;;;;;;;;;;5078682;28;20560;-84
2023/04/28 12:43:25;;;;;;;0.40;0.40;;;;;;;;;;5091115;28;20199;-84
2023/04/28 12:45:52;;;;;;;0.40;0.40;;;;;;;;;;5090630;28;20182;-79
2023/04/28 12:48:18;;;;;;;0.37;0.37;;;;;;;;;;5093022;28;20276;-80
2023/04/28 12:50:45;;;;;;;0.40;0.40;;;;;;;;;;5087829;28;20676;-81
2023/04/28 12:53:11;;;;;;;0.40;0.40;;;;;;;;;;5090952;28;20178;-80
2023/04/28 12:55:40;;;;;;;0.40;0.40;;;;;;;;;;5089930;28;20539;-81
2023/04/28 12:58:06;;;;;;;0.33;0.33;;;;;;;;;;5080065;28;20213;-81
2023/04/28 13:00:32;;;;;;;0.40;0.40;;;;;;;;;;5087915;28;20553;-81
2023/04/28 13:02:59;;;;;;;0.30;0.30;;;;;;;;;;5090866;28;20190;-81
2023/04/28 13:05:25;;;;;;;0.30;0.30;;;;;;;;;;5090053;28;20289;-83
2023/04/28 13:07:51;;;;;;;0.43;0.43;;;;;;;;;;5085088;28;20198;-82
2023/04/28 13:10:18;;;;;;;0.40;0.40;;;;;;;;;;5088877;28;20597;-82
2023/04/28 13:12:44;;;;;;;0.50;0.50;;;;;;;;;;5087281;28;20289;-82
2023/04/28 13:15:11;;;;;;;0.40;0.40;;;;;;;;;;5087988;28;20235;-80
2023/04/28 13:17:37;;;;;;;0.37;0.37;;;;;;;;;;5091809;28;20203;-81
2023/04/28 13:20:03;;;;;;;0.30;0.30;;;;;;;;;;5089126;28;20175;-80
2023/04/28 13:22:29;;;;;;;0.40;0.40;;;;;;;;;;5089437;28;20556;-81
2023/04/28 13:24:56;;;;;;;0.30;0.30;;;;;;;;;;5092711;28;20196;-82
2023/04/28 13:27:22;;;;;;;0.40;0.40;;;;;;;;;;5092086;28;20548;-81
2023/04/28 13:29:48;;;;;;;0.40;0.40;;;;;;;;;;5093072;28;20282;-81
2023/04/28 13:32:14;;;;;;;0.40;0.40;;;;;;;;;;5090706;28;20628;-80
2023/04/28 13:34:40;;;;;;;0.40;0.40;;;;;;;;;;5089859;28;20222;-80
2023/04/28 13:37:06;;;;;;;0.40;0.40;;;;;;;;;;5087848;28;20182;-80
2023/04/28 13:39:32;;;;;;;0.40;0.40;;;;;;;;;;5080759;28;20178;-82
2023/04/28 13:41:58;;;;;;;0.30;0.30;;;;;;;;;;5080880;28;20179;-82
2023/04/28 13:44:24;;;;;;;0.30;0.30;;;;;;;;;;5081084;28;20209;-82
2023/04/28 13:46:52;;;;;;;0.40;0.40;;;;;;;;;;5088618;28;20182;-83
2023/04/28 13:49:18;;;;;;;0.30;0.30;;;;;;;;;;5087643;28;20275;-83
2023/04/28 13:51:45;;;;;;;0.30;0.30;;;;;;;;;;5077020;28;20258;-83
2023/04/28 13:54:11;;;;;;;0.30;0.30;;;;;;;;;;5075295;28;20198;-81
2023/04/28 13:56:37;;;;;;;0.40;0.40;;;;;;;;;;5076331;28;20558;-81
2023/04/28 13:59:03;;;;;;;0.30;0.30;;;;;;;;;;5075338;28;20209;-81
2023/04/28 14:01:29;;;;;;;0.30;0.30;;;;;;;;;;5077780;28;20246;-80
2023/04/28 14:03:55;;;;;;;0.30;0.30;;;;;;;;;;5075873;28;20201;-81
2023/04/28 14:06:21;;;;;;;0.40;0.40;;;;;;;;;;5076394;28;20281;-80
2023/04/28 14:08:47;;;;;;;0.30;0.30;;;;;;;;;;5075484;28;20217;-80
2023/04/28 14:11:13;;;;;;;0.40;0.40;;;;;;;;;;5075492;28;20170;-80
2023/04/28 14:13:39;;;;;;;0.30;0.30;;;;;;;;;;5076578;28;20611;-82
2023/04/28 14:16:06;;;;;;;0.43;0.43;;;;;;;;;;5076752;28;20681;-81
2023/04/28 14:18:32;;;;;;;0.50;0.50;;;;;;;;;;5077299;28;20166;-80
2023/04/28 14:20:59;;;;;;;0.30;0.30;;;;;;;;;;5094917;28;20208;-82
2023/04/28 14:23:25;;;;;;;0.40;0.40;;;;;;;;;;5114362;28;20182;-82
2023/04/28 14:25:57;;;;;;;0.33;0.33;;;;;;;;;;5110263;28;20181;-82
2023/04/28 14:28:23;;;;;;;0.30;0.30;;;;;;;;;;5100375;28;20230;-83
2023/04/28 14:30:49;;;;;;;0.40;0.40;;;;;;;;;;5102626;28;20643;-83
2023/04/28 14:33:15;;;;;;;0.40;0.40;;;;;;;;;;5100440;28;20165;-82
2023/04/28 14:35:41;;;;;;;0.30;0.30;;;;;;;;;;5106730;28;20185;-82
2023/04/28 14:38:07;;;;;;;0.40;0.40;;;;;;;;;;5101397;28;20265;-81
2023/04/28 14:40:33;;;;;;;0.30;0.30;;;;;;;;;;5101553;28;20174;-80
2023/04/28 14:43:00;;;;;;;0.40;0.40;;;;;;;;;;5089761;28;20206;-80